createdAt,value
2018-04-30T00:02:00.399Z,70.57
2018-04-30T00:04:27.960Z,70.54
2018-04-30T00:06:55.514Z,70.63
2018-04-30T00:09:23.058Z,70.71
2018-04-30T00:11:50.780Z,70.84
2018-04-30T00:14:18.310Z,71.10
2018-04-30T00:16:45.851Z,71.30
2018-04-30T00:19:13.463Z,71.37
2018-04-30T00:21:41.016Z,71.46
2018-04-30T00:24:08.567Z,71.37
2018-04-30T00:26:36.159Z,71.37
2018-04-30T00:29:03.721Z,71.48
2018-04-30T00:31:31.289Z,71.60
2018-04-30T00:33:58.982Z,71.58
2018-04-30T00:36:26.510Z,71.50
2018-04-30T00:38:54.506Z,71.63
2018-04-30T00:41:22.229Z,71.79
2018-04-30T00:43:49.866Z,71.85
2018-04-30T00:46:17.395Z,71.82
2018-04-30T00:48:44.959Z,71.67
2018-04-30T00:51:12.508Z,71.69
2018-04-30T00:53:40.052Z,71.68
2018-04-30T00:56:07.824Z,71.74
2018-04-30T00:58:35.364Z,71.92
2018-04-30T01:01:02.908Z,71.81
2018-04-30T01:03:30.599Z,71.91
2018-04-30T01:05:58.221Z,71.99
2018-04-30T01:08:25.754Z,71.95
2018-04-30T01:10:53.319Z,71.92
2018-04-30T01:13:20.845Z,71.82
2018-04-30T01:15:48.388Z,71.71
2018-04-30T01:18:15.975Z,72.09
2018-04-30T01:20:43.529Z,71.96
2018-04-30T01:23:11.076Z,72.19
2018-04-30T01:25:38.940Z,72.35
2018-04-30T01:28:06.503Z,72.75
2018-04-30T01:30:34.042Z,72.70
2018-04-30T01:33:01.627Z,72.94
2018-04-30T01:35:29.168Z,72.96
2018-04-30T01:37:56.704Z,73.02
2018-04-30T01:40:24.261Z,72.93
2018-04-30T01:42:51.786Z,72.94
2018-04-30T01:45:19.333Z,73.08
2018-04-30T01:47:47.068Z,73.12
2018-04-30T01:50:14.610Z,73.16
2018-04-30T01:52:42.161Z,73.08
2018-04-30T01:55:09.885Z,73.12
2018-04-30T01:57:37.458Z,73.25
2018-04-30T02:00:05.028Z,73.36
2018-04-30T02:02:32.622Z,73.41
2018-04-30T02:05:00.155Z,73.57
2018-04-30T02:07:27.714Z,73.68
2018-04-30T02:09:55.463Z,73.69
2018-04-30T02:12:23.008Z,73.76
2018-04-30T02:14:50.557Z,73.99
2018-04-30T02:17:18.143Z,74.16
2018-04-30T02:19:45.692Z,74.40
2018-04-30T02:22:13.241Z,74.56
2018-04-30T02:24:40.959Z,74.56
2018-04-30T02:27:08.548Z,74.50
2018-04-30T02:29:36.090Z,74.55
2018-04-30T02:32:03.674Z,74.68
2018-04-30T02:34:31.229Z,74.74
2018-04-30T02:36:58.761Z,74.87
2018-04-30T02:39:26.619Z,74.76
2018-04-30T02:41:54.167Z,74.77
2018-04-30T02:44:21.720Z,74.82
2018-04-30T02:46:49.438Z,74.74
2018-04-30T02:49:16.976Z,74.63
2018-04-30T02:51:44.529Z,74.65
2018-04-30T02:54:12.099Z,74.87
2018-04-30T02:56:39.716Z,74.93
2018-04-30T02:59:07.280Z,75.15
2018-04-30T03:01:34.821Z,75.18
2018-04-30T03:04:02.364Z,75.22
2018-04-30T03:06:29.928Z,75.30
2018-04-30T03:08:57.473Z,75.24
2018-04-30T03:11:25.013Z,75.41
2018-04-30T03:13:52.656Z,75.39
2018-04-30T03:16:20.201Z,75.21
2018-04-30T03:18:47.749Z,75.16
2018-04-30T03:21:15.471Z,75.21
2018-04-30T03:23:43.013Z,75.16
2018-04-30T03:26:10.558Z,74.49
2018-04-30T03:28:38.267Z,74.36
2018-04-30T03:31:05.818Z,74.81
2018-04-30T03:33:33.361Z,74.65
2018-04-30T03:36:01.224Z,74.29
2018-04-30T03:38:28.767Z,74.05
2018-04-30T03:40:56.309Z,73.72
2018-04-30T03:43:23.997Z,73.34
2018-04-30T03:45:51.550Z,72.65
2018-04-30T03:48:19.078Z,71.65
2018-04-30T03:50:46.821Z,70.46
2018-04-30T03:53:14.368Z,69.07
2018-04-30T03:55:41.915Z,66.19
2018-04-30T03:58:09.495Z,64.99
2018-04-30T04:00:48.658Z,62.01
2018-04-30T04:03:28.568Z,60.94
2018-04-30T04:06:07.848Z,60.02
2018-04-30T04:08:35.559Z,58.70
2018-04-30T04:11:03.092Z,56.25
2018-04-30T04:13:30.630Z,55.33
2018-04-30T04:15:58.351Z,52.99
2018-04-30T04:18:25.892Z,50.92
2018-04-30T04:20:53.445Z,48.42
2018-04-30T04:23:21.015Z,47.27
2018-04-30T04:25:48.553Z,45.31
2018-04-30T04:28:16.097Z,43.38
2018-04-30T04:30:43.691Z,41.65
2018-04-30T04:33:11.241Z,40.18
2018-04-30T04:35:38.785Z,36.37
2018-04-30T04:38:06.367Z,36.51
2018-04-30T04:40:33.925Z,35.96
2018-04-30T04:43:01.456Z,34.56
2018-04-30T04:45:29.177Z,34.26
2018-04-30T04:47:56.720Z,33.74
2018-04-30T04:50:24.276Z,35.17
2018-04-30T04:52:51.855Z,35.78
2018-04-30T04:55:19.460Z,35.89
2018-04-30T04:57:47.000Z,34.54
2018-04-30T05:00:14.531Z,32.57
2018-04-30T05:02:42.076Z,30.46
2018-04-30T05:05:09.659Z,27.62
2018-04-30T05:07:37.206Z,26.33
2018-04-30T05:10:04.743Z,25.39
2018-04-30T05:12:32.455Z,24.80
2018-04-30T05:14:59.986Z,24.22
2018-04-30T05:17:27.522Z,23.19
2018-04-30T05:19:55.204Z,23.43
2018-04-30T05:22:22.748Z,22.74
2018-04-30T05:24:50.291Z,23.30
2018-04-30T05:27:18.020Z,25.92
2018-04-30T05:29:45.576Z,27.46
2018-04-30T05:32:13.145Z,27.04
2018-04-30T05:34:40.820Z,26.71
2018-04-30T05:37:08.351Z,28.23
2018-04-30T05:39:35.912Z,29.88
2018-04-30T05:42:03.603Z,29.35
2018-04-30T05:44:31.165Z,28.47
2018-04-30T05:46:58.724Z,28.69
2018-04-30T05:49:26.460Z,30.76
2018-04-30T05:51:54.007Z,30.31
2018-04-30T05:54:21.538Z,29.69
2018-04-30T05:56:49.319Z,30.14
2018-04-30T05:59:16.826Z,32.19
2018-04-30T06:01:44.389Z,30.38
2018-04-30T06:04:11.968Z,31.36
2018-04-30T06:06:39.533Z,31.41
2018-04-30T06:09:07.119Z,31.86
2018-04-30T06:11:34.707Z,32.43
2018-04-30T06:14:02.248Z,32.96
2018-04-30T06:16:29.819Z,34.28
2018-04-30T06:18:57.394Z,35.56
2018-04-30T06:21:24.933Z,36.10
2018-04-30T06:23:53.369Z,35.64
2018-04-30T06:26:21.104Z,36.31
2018-04-30T06:28:48.643Z,36.46
2018-04-30T06:31:16.181Z,35.51
2018-04-30T06:33:43.858Z,36.54
2018-04-30T06:36:11.431Z,38.49
2018-04-30T06:38:38.984Z,39.00
2018-04-30T06:41:06.857Z,38.25
2018-04-30T06:43:34.400Z,38.46
2018-04-30T06:46:01.934Z,38.45
2018-04-30T06:48:29.543Z,38.55
2018-04-30T06:50:57.089Z,39.34
2018-04-30T06:53:24.705Z,38.53
2018-04-30T06:55:52.395Z,38.93
2018-04-30T06:58:19.941Z,39.18
2018-04-30T07:00:47.494Z,39.85
2018-04-30T07:03:15.069Z,40.34
2018-04-30T07:05:42.603Z,41.63
2018-04-30T07:08:10.144Z,41.97
2018-04-30T07:10:38.036Z,44.21
2018-04-30T07:13:05.594Z,44.09
2018-04-30T07:15:33.142Z,43.75
2018-04-30T07:18:00.815Z,43.24
2018-04-30T07:20:28.388Z,43.40
2018-04-30T07:22:55.941Z,42.22
2018-04-30T07:25:23.516Z,42.24
2018-04-30T07:27:51.144Z,41.44
2018-04-30T07:30:18.648Z,40.36
2018-04-30T07:32:46.219Z,39.41
2018-04-30T07:35:13.759Z,39.38
2018-04-30T07:37:41.304Z,38.49
2018-04-30T07:40:08.899Z,38.06
2018-04-30T07:42:36.435Z,38.61
2018-04-30T07:45:04.032Z,37.75
2018-04-30T07:47:31.591Z,37.45
2018-04-30T07:49:59.125Z,37.68
2018-04-30T07:52:26.733Z,37.84
2018-04-30T07:54:54.824Z,38.42
2018-04-30T07:57:22.430Z,36.51
2018-04-30T07:59:49.935Z,36.16
2018-04-30T08:02:17.488Z,37.63
2018-04-30T08:04:45.052Z,37.38
2018-04-30T08:07:12.908Z,37.60
2018-04-30T08:09:40.445Z,38.45
2018-04-30T08:12:07.985Z,37.75
2018-04-30T08:14:35.567Z,37.84
2018-04-30T08:17:03.106Z,37.65
2018-04-30T08:19:30.656Z,37.89
2018-04-30T08:21:58.222Z,37.72
2018-04-30T08:24:25.758Z,38.32
2018-04-30T08:26:53.341Z,37.77
2018-04-30T08:29:21.021Z,38.38
2018-04-30T08:31:48.555Z,39.34
2018-04-30T08:34:16.121Z,38.30
2018-04-30T08:36:43.713Z,39.54
2018-04-30T08:39:11.284Z,41.51
2018-04-30T08:41:38.836Z,39.62
2018-04-30T08:44:06.624Z,40.52
2018-04-30T08:46:34.173Z,38.73
2018-04-30T08:49:01.712Z,39.54
2018-04-30T08:51:29.288Z,39.68
2018-04-30T08:53:56.819Z,39.93
2018-04-30T08:56:24.349Z,39.40
2018-04-30T08:58:51.918Z,37.84
2018-04-30T09:01:19.452Z,37.86
2018-04-30T09:03:46.995Z,37.75
2018-04-30T09:06:14.568Z,37.82
2018-04-30T09:08:42.128Z,37.67
2018-04-30T09:11:09.709Z,37.59
2018-04-30T09:13:37.912Z,38.46
2018-04-30T09:16:05.488Z,37.91
2018-04-30T09:18:33.036Z,37.65
2018-04-30T09:21:00.743Z,38.12
2018-04-30T09:23:28.281Z,37.22
2018-04-30T09:25:55.815Z,38.79
2018-04-30T09:28:23.537Z,38.52
2018-04-30T09:30:51.086Z,39.25
2018-04-30T09:33:18.629Z,38.71
2018-04-30T09:35:46.208Z,39.19
2018-04-30T09:38:13.753Z,38.28
2018-04-30T09:40:41.302Z,39.27
2018-04-30T09:43:08.904Z,37.80
2018-04-30T09:45:36.643Z,38.81
2018-04-30T09:48:04.204Z,37.32
2018-04-30T09:50:31.777Z,36.92
2018-04-30T09:52:59.324Z,37.24
2018-04-30T09:55:26.869Z,36.27
2018-04-30T09:57:54.665Z,37.37
2018-04-30T10:00:24.004Z,37.25
2018-04-30T10:02:51.544Z,38.33
2018-04-30T10:05:19.123Z,37.45
2018-04-30T10:07:46.668Z,38.07
2018-04-30T10:10:14.209Z,37.35
2018-04-30T10:12:41.787Z,36.40
2018-04-30T10:15:09.351Z,35.72
2018-04-30T10:17:36.934Z,35.84
2018-04-30T10:20:04.513Z,36.11
2018-04-30T10:22:32.048Z,35.46
2018-04-30T10:24:59.591Z,34.24
2018-04-30T10:27:27.178Z,33.87
2018-04-30T10:29:54.728Z,34.53
2018-04-30T10:32:22.273Z,33.76
2018-04-30T10:34:50.078Z,34.48
2018-04-30T10:37:17.608Z,33.89
2018-04-30T10:39:45.181Z,34.30
2018-04-30T10:42:12.779Z,34.49
2018-04-30T10:44:41.077Z,33.09
2018-04-30T10:47:08.615Z,33.23
2018-04-30T10:49:36.197Z,33.60
2018-04-30T10:52:03.740Z,34.35
2018-04-30T10:54:31.292Z,35.52
2018-04-30T10:56:58.866Z,35.61
2018-04-30T10:59:26.405Z,34.22
2018-04-30T11:01:53.945Z,35.39
2018-04-30T11:04:21.511Z,35.03
2018-04-30T11:06:49.084Z,35.70
2018-04-30T11:09:16.624Z,35.42
2018-04-30T11:11:44.378Z,35.36
2018-04-30T11:14:11.908Z,35.38
2018-04-30T11:16:39.447Z,34.01
2018-04-30T11:19:07.182Z,34.79
2018-04-30T11:21:34.716Z,34.64
2018-04-30T11:24:02.252Z,35.76
2018-04-30T11:26:30.117Z,33.88
2018-04-30T11:28:57.656Z,34.30
2018-04-30T11:31:25.201Z,33.29
2018-04-30T11:33:52.772Z,32.71
2018-04-30T11:36:20.329Z,32.53
2018-04-30T11:38:47.892Z,32.46
2018-04-30T11:41:15.635Z,33.73
2018-04-30T11:43:43.215Z,33.09
2018-04-30T11:46:10.793Z,33.09
2018-04-30T11:48:38.423Z,33.19
2018-04-30T11:51:05.980Z,34.09
2018-04-30T11:53:33.531Z,33.63
2018-04-30T11:56:01.437Z,35.22
2018-04-30T11:58:28.996Z,33.02
2018-04-30T12:00:56.560Z,32.45
2018-04-30T12:03:24.348Z,32.46
2018-04-30T12:05:51.901Z,32.72
2018-04-30T12:08:19.447Z,32.23
2018-04-30T12:10:47.188Z,32.15
2018-04-30T12:13:14.746Z,33.00
2018-04-30T12:15:42.325Z,33.72
2018-04-30T12:18:10.221Z,31.87
2018-04-30T12:20:37.786Z,32.42
2018-04-30T12:23:05.337Z,32.16
2018-04-30T12:25:33.265Z,32.53
2018-04-30T12:28:00.840Z,33.12
2018-04-30T12:30:28.446Z,32.28
2018-04-30T12:32:56.315Z,33.80
2018-04-30T12:35:23.881Z,31.86
2018-04-30T12:37:51.447Z,32.10
2018-04-30T12:40:19.057Z,32.32
2018-04-30T12:42:46.608Z,32.81
2018-04-30T12:45:14.174Z,31.33
2018-04-30T12:47:41.745Z,31.14
2018-04-30T12:50:09.290Z,32.27
2018-04-30T12:52:36.858Z,32.27
2018-04-30T12:55:04.615Z,32.86
2018-04-30T12:57:32.185Z,32.88
2018-04-30T12:59:59.760Z,31.81
2018-04-30T13:02:27.334Z,32.81
2018-04-30T13:04:54.896Z,32.70
2018-04-30T13:07:22.504Z,34.01
2018-04-30T13:09:50.049Z,33.61
2018-04-30T13:12:17.624Z,34.36
2018-04-30T13:14:45.387Z,34.35
2018-04-30T13:17:12.969Z,34.54
2018-04-30T13:19:40.517Z,34.67
2018-04-30T13:22:08.216Z,34.43
2018-04-30T13:24:35.774Z,32.86
2018-04-30T13:27:03.308Z,34.20
2018-04-30T13:29:30.880Z,34.63
2018-04-30T13:31:58.425Z,34.84
2018-04-30T13:34:25.975Z,35.14
2018-04-30T13:36:53.827Z,34.79
2018-04-30T13:39:21.384Z,34.97
2018-04-30T13:41:48.931Z,35.18
2018-04-30T13:44:16.511Z,34.68
2018-04-30T13:46:44.092Z,34.83
2018-04-30T13:49:11.645Z,33.55
2018-04-30T13:51:39.366Z,33.11
2018-04-30T13:54:06.910Z,32.31
2018-04-30T13:56:34.468Z,33.75
2018-04-30T13:59:02.155Z,35.00
2018-04-30T14:01:29.703Z,34.14
2018-04-30T14:03:57.253Z,34.70
2018-04-30T14:06:24.839Z,34.93
2018-04-30T14:08:52.390Z,34.60
2018-04-30T14:11:19.951Z,33.15
2018-04-30T14:13:47.525Z,34.95
2018-04-30T14:16:15.088Z,34.50
2018-04-30T14:18:42.634Z,36.20
2018-04-30T14:21:10.230Z,35.74
2018-04-30T14:23:37.776Z,35.13
2018-04-30T14:26:05.369Z,36.27
2018-04-30T14:28:32.943Z,36.49
2018-04-30T14:31:00.494Z,37.82
2018-04-30T14:33:28.040Z,37.83
2018-04-30T14:35:55.629Z,37.49
2018-04-30T14:38:23.280Z,37.31
2018-04-30T14:40:50.768Z,37.76
2018-04-30T14:43:18.367Z,35.63
2018-04-30T14:45:45.937Z,37.06
2018-04-30T14:48:13.476Z,37.48
2018-04-30T14:50:41.060Z,38.33
2018-04-30T14:53:08.609Z,39.09
2018-04-30T14:55:36.157Z,37.18
2018-04-30T14:58:03.751Z,38.01
2018-04-30T15:00:31.310Z,38.31
2018-04-30T15:02:58.842Z,37.47
2018-04-30T15:05:26.425Z,37.58
2018-04-30T15:07:53.980Z,37.79
2018-04-30T15:10:21.566Z,37.27
2018-04-30T15:12:49.144Z,37.98
2018-04-30T15:15:16.680Z,40.64
2018-04-30T15:17:44.229Z,41.32
2018-04-30T15:20:11.960Z,42.38
2018-04-30T15:22:39.523Z,42.35
2018-04-30T15:25:07.067Z,43.06
2018-04-30T15:27:34.678Z,44.58
2018-04-30T15:30:02.225Z,46.06
2018-04-30T15:32:29.769Z,46.45
2018-04-30T15:34:57.377Z,46.92
2018-04-30T15:37:24.920Z,47.09
2018-04-30T15:39:52.501Z,46.55
2018-04-30T15:42:20.085Z,47.92
2018-04-30T15:44:47.639Z,45.19
2018-04-30T15:47:15.172Z,44.02
2018-04-30T15:49:42.754Z,43.44
2018-04-30T15:52:10.300Z,42.09
2018-04-30T15:54:37.931Z,41.78
2018-04-30T15:57:05.453Z,43.06
2018-04-30T15:59:32.994Z,43.44
2018-04-30T16:02:00.528Z,44.57
2018-04-30T16:04:28.137Z,43.81
2018-04-30T16:06:55.712Z,44.03
2018-04-30T16:09:23.290Z,46.33
2018-04-30T16:11:50.861Z,48.82
2018-04-30T16:14:18.465Z,48.58
2018-04-30T16:16:45.988Z,49.47
2018-04-30T16:19:13.629Z,50.00
2018-04-30T16:21:41.180Z,49.73
2018-04-30T16:24:08.733Z,49.79
2018-04-30T16:26:36.448Z,50.01
2018-04-30T16:29:03.987Z,50.74
2018-04-30T16:31:31.548Z,50.69
2018-04-30T16:33:59.269Z,50.95
2018-04-30T16:36:26.837Z,51.67
2018-04-30T16:38:54.371Z,51.88
2018-04-30T16:41:21.951Z,51.05
2018-04-30T16:43:49.493Z,50.68
2018-04-30T16:46:17.045Z,50.76
2018-04-30T16:48:44.616Z,50.40
2018-04-30T16:51:12.160Z,50.14
2018-04-30T16:53:39.717Z,50.06
2018-04-30T16:56:07.334Z,49.37
2018-04-30T16:58:34.967Z,50.47
2018-04-30T17:01:02.460Z,51.59
2018-04-30T17:03:30.000Z,51.17
2018-04-30T17:05:57.559Z,49.92
2018-04-30T17:08:25.143Z,50.12
2018-04-30T17:10:52.684Z,50.17
2018-04-30T17:13:20.822Z,50.91
2018-04-30T17:15:48.573Z,48.40
2018-04-30T17:18:16.134Z,49.90
2018-04-30T17:20:43.671Z,49.66
2018-04-30T17:23:11.425Z,48.71
2018-04-30T17:25:38.989Z,47.36
2018-04-30T17:28:06.548Z,47.40
2018-04-30T17:30:34.291Z,48.36
2018-04-30T17:33:01.863Z,48.49
2018-04-30T17:35:29.404Z,48.63
2018-04-30T17:37:57.031Z,49.08
2018-04-30T17:40:24.610Z,49.59
2018-04-30T17:42:52.198Z,50.80
2018-04-30T17:45:19.880Z,51.46
2018-04-30T17:47:47.413Z,51.85
2018-04-30T17:50:15.048Z,51.82
2018-04-30T17:52:42.701Z,51.67
2018-04-30T17:55:10.260Z,51.80
2018-04-30T17:57:37.841Z,51.95
2018-04-30T18:00:05.628Z,51.93
2018-04-30T18:02:33.228Z,52.00
2018-04-30T18:05:00.798Z,52.21
2018-04-30T18:07:28.498Z,52.59
2018-04-30T18:09:56.102Z,52.59
2018-04-30T18:12:23.660Z,52.37
2018-04-30T18:14:51.542Z,52.74
2018-04-30T18:17:19.097Z,52.79
2018-04-30T18:19:46.780Z,52.60
2018-04-30T18:22:14.320Z,52.59
2018-04-30T18:24:41.868Z,52.84
2018-04-30T18:27:09.425Z,52.98
2018-04-30T18:29:37.063Z,52.91
2018-04-30T18:32:04.686Z,52.62
2018-04-30T18:34:32.249Z,52.67
2018-04-30T18:37:00.151Z,52.90
2018-04-30T18:39:27.705Z,53.05
2018-04-30T18:41:55.257Z,53.57
2018-04-30T18:44:22.921Z,53.79
2018-04-30T18:46:50.446Z,54.00
2018-04-30T18:49:18.021Z,54.69
2018-04-30T18:51:45.604Z,54.46
2018-04-30T18:54:13.172Z,54.89
2018-04-30T18:56:40.744Z,55.61
2018-04-30T18:59:08.630Z,56.27
2018-04-30T19:01:36.219Z,56.72
2018-04-30T19:04:03.808Z,57.39
2018-04-30T19:06:31.496Z,57.54
2018-04-30T19:08:59.098Z,57.74
2018-04-30T19:11:26.689Z,58.06
2018-04-30T19:13:54.336Z,58.16
2018-04-30T19:16:21.884Z,58.42
2018-04-30T19:18:49.459Z,58.48
2018-04-30T19:21:17.211Z,58.86
2018-04-30T19:23:44.777Z,59.14
2018-04-30T19:26:12.342Z,59.42
2018-04-30T19:28:40.106Z,59.62
2018-04-30T19:31:07.688Z,59.85
2018-04-30T19:33:35.264Z,60.25
2018-04-30T19:36:02.993Z,60.39
2018-04-30T19:38:30.537Z,60.46
2018-04-30T19:40:58.093Z,60.50
2018-04-30T19:43:25.688Z,60.72
2018-04-30T19:45:53.233Z,60.91
2018-04-30T19:48:20.821Z,61.16
2018-04-30T19:50:48.532Z,61.36
2018-04-30T19:53:16.111Z,61.53
2018-04-30T19:55:43.666Z,61.62
2018-04-30T19:58:11.249Z,61.72
2018-04-30T20:00:38.826Z,61.74
2018-04-30T20:03:06.363Z,61.67
2018-04-30T20:05:33.947Z,61.76
2018-04-30T20:08:01.505Z,62.24
2018-04-30T20:10:29.054Z,62.30
2018-04-30T20:12:56.681Z,62.25
2018-04-30T20:15:24.228Z,61.77
2018-04-30T20:17:51.798Z,61.37
2018-04-30T20:20:19.402Z,61.00
2018-04-30T20:22:46.948Z,61.07
2018-04-30T20:25:14.520Z,59.61
2018-04-30T20:27:42.264Z,59.23
2018-04-30T20:30:09.809Z,59.73
2018-04-30T20:32:37.400Z,60.87
2018-04-30T20:35:04.990Z,60.95
2018-04-30T20:37:32.533Z,61.12
2018-04-30T20:40:00.093Z,61.47
2018-04-30T20:42:27.705Z,62.02
2018-04-30T20:44:55.271Z,62.47
2018-04-30T20:47:22.817Z,62.71
2018-04-30T20:49:50.714Z,62.65
2018-04-30T20:52:18.251Z,62.73
2018-04-30T20:54:45.801Z,62.79
2018-04-30T20:57:13.398Z,63.05
2018-04-30T20:59:40.970Z,63.09
2018-04-30T21:02:08.539Z,63.35
2018-04-30T21:04:36.132Z,63.53
2018-04-30T21:07:03.698Z,63.80
2018-04-30T21:09:31.277Z,63.76
2018-04-30T21:11:58.890Z,63.73
2018-04-30T21:14:26.479Z,63.92
2018-04-30T21:16:54.080Z,63.94
2018-04-30T21:19:21.958Z,63.59
2018-04-30T21:21:49.512Z,63.34
2018-04-30T21:24:17.179Z,63.49
2018-04-30T21:26:44.789Z,63.60
2018-04-30T21:29:12.338Z,63.60
2018-04-30T21:31:39.876Z,63.98
2018-04-30T21:34:07.458Z,64.06
2018-04-30T21:36:35.029Z,64.23
2018-04-30T21:39:02.569Z,64.62
2018-04-30T21:41:30.309Z,64.88
2018-04-30T21:43:57.868Z,65.04
2018-04-30T21:46:25.409Z,65.37
2018-04-30T21:48:53.149Z,65.23
2018-04-30T21:51:20.698Z,65.31
2018-04-30T21:53:48.312Z,65.65
2018-04-30T21:56:16.004Z,65.89
2018-04-30T21:58:43.546Z,66.01
2018-04-30T22:01:11.101Z,66.15
2018-04-30T22:03:38.631Z,66.25
2018-04-30T22:06:06.187Z,66.12
2018-04-30T22:08:33.749Z,66.18
2018-04-30T22:11:01.306Z,66.33
2018-04-30T22:13:28.850Z,66.42
2018-04-30T22:15:56.445Z,66.50
2018-04-30T22:18:23.989Z,66.47
2018-04-30T22:20:51.546Z,66.46
2018-04-30T22:23:19.157Z,66.63
2018-04-30T22:25:46.703Z,66.92
2018-04-30T22:28:14.262Z,67.09
2018-04-30T22:30:41.848Z,67.23
2018-04-30T22:33:09.393Z,67.43
2018-04-30T22:35:36.940Z,67.58
2018-04-30T22:38:04.541Z,67.78
2018-04-30T22:40:32.083Z,67.83
2018-04-30T22:42:59.623Z,67.91
2018-04-30T22:45:27.309Z,67.93
2018-04-30T22:47:54.851Z,67.90
2018-04-30T22:50:22.421Z,67.80
2018-04-30T22:52:50.002Z,67.77
2018-04-30T22:55:17.556Z,67.87
2018-04-30T22:57:45.091Z,68.04
2018-04-30T23:00:12.695Z,68.06
2018-04-30T23:02:40.220Z,67.98
2018-04-30T23:05:07.780Z,67.94
2018-04-30T23:07:35.368Z,67.93
2018-04-30T23:10:02.907Z,67.88
2018-04-30T23:12:30.469Z,67.96
2018-04-30T23:14:58.193Z,67.70
2018-04-30T23:17:25.736Z,67.56
2018-04-30T23:19:53.271Z,67.12
2018-04-30T23:22:20.875Z,66.62
2018-04-30T23:24:48.433Z,65.88
2018-04-30T23:27:15.973Z,65.43
2018-04-30T23:29:43.547Z,65.36
2018-04-30T23:32:11.084Z,65.42
2018-04-30T23:34:38.630Z,65.49
2018-04-30T23:37:06.365Z,65.45
2018-04-30T23:39:33.915Z,65.39
2018-04-30T23:42:01.452Z,64.13
2018-04-30T23:44:29.180Z,64.73
2018-04-30T23:46:56.724Z,65.58
2018-04-30T23:49:24.282Z,65.79
2018-04-30T23:51:51.991Z,65.42
2018-04-30T23:54:19.531Z,65.35
2018-04-30T23:56:47.086Z,65.25
2018-04-30T23:59:14.660Z,65.04
